Terminal Aerodrome Forecast
Issued by NWS

Home | Current Version | Previous Version | Text Only | Print | Product List | Glossary On
Versions: 1 2 3 4 5 6 7 8 9 10 11 12 13 14 15 16 17 18 19 20 21 22
000
FTUS45 KTFX 031434 AAA
TAFCTB
TAF AMD
KCTB 031434Z 0315/0412 VRB04KT P6SM VCFG SCT070
     FM032000 24011KT P6SM VCSH SCT040 BKN070
     FM040400 VRB06KT P6SM -SHRA SCT030 OVC050=

USA.gov is the U.S. government's official web portal to all federal, state and local government web resources and services.